createdAt,value
2018-02-01T05:00:41.255Z,992.48
2018-02-01T05:01:06.708Z,992.47
2018-02-01T05:01:32.206Z,992.5
2018-02-01T05:01:57.702Z,992.49
2018-02-01T05:02:23.201Z,992.5
2018-02-01T05:02:48.669Z,992.55
2018-02-01T05:03:14.136Z,992.53
2018-02-01T05:03:39.612Z,992.54
2018-02-01T05:04:05.138Z,992.52
2018-02-01T05:04:30.556Z,992.54
2018-02-01T05:04:56.012Z,992.55
2018-02-01T05:05:21.504Z,992.58
2018-02-01T05:05:47.016Z,992.49
2018-02-01T05:06:12.457Z,992.53
2018-02-01T05:06:37.963Z,992.53
2018-02-01T05:07:03.415Z,992.59
2018-02-01T05:07:28.901Z,992.57
2018-02-01T05:07:54.368Z,992.58
2018-02-01T05:08:19.834Z,992.58
2018-02-01T05:08:45.295Z,992.56
2018-02-01T05:09:10.768Z,992.58
2018-02-01T05:09:36.269Z,992.61
2018-02-01T05:10:01.725Z,992.6
2018-02-01T05:10:27.224Z,992.59
2018-02-01T05:10:52.693Z,992.66
2018-02-01T05:11:18.163Z,992.62
2018-02-01T05:11:43.755Z,992.6
2018-02-01T05:12:09.130Z,992.62
2018-02-01T05:12:34.627Z,992.64
2018-02-01T05:13:00.077Z,992.64
2018-02-01T05:13:25.544Z,992.59
2018-02-01T05:13:51.021Z,992.66
2018-02-01T05:14:16.476Z,992.63
2018-02-01T05:14:41.932Z,992.61
2018-02-01T05:15:07.416Z,992.67
2018-02-01T05:15:32.909Z,992.61
2018-02-01T05:16:41.614Z,992.65
2018-02-01T05:17:07.098Z,992.62
2018-02-01T05:17:32.594Z,992.61
2018-02-01T05:17:58.086Z,992.61
2018-02-01T05:18:23.555Z,992.58
2018-02-01T05:18:49.028Z,992.59
2018-02-01T05:19:14.523Z,992.56
2018-02-01T05:19:39.952Z,992.58
2018-02-01T05:20:05.431Z,992.57
2018-02-01T05:20:30.898Z,992.59
2018-02-01T05:20:56.354Z,992.57
2018-02-01T05:21:21.804Z,992.55
2018-02-01T05:21:47.280Z,992.6
2018-02-01T05:22:12.700Z,992.58
2018-02-01T05:22:38.149Z,992.54
2018-02-01T05:23:03.599Z,992.58
2018-02-01T05:23:29.108Z,992.59
2018-02-01T05:23:54.573Z,992.57
2018-02-01T05:24:20.059Z,992.56
2018-02-01T05:24:45.484Z,992.54
2018-02-01T05:25:10.941Z,992.55
2018-02-01T05:25:36.427Z,992.58
2018-02-01T05:26:01.873Z,992.56
2018-02-01T05:26:27.348Z,992.52
2018-02-01T05:26:52.867Z,992.52
2018-02-01T05:27:18.371Z,992.51
2018-02-01T05:27:43.835Z,992.55
2018-02-01T05:28:09.311Z,992.55
2018-02-01T05:28:34.790Z,992.52
2018-02-01T05:29:00.237Z,992.5
2018-02-01T05:29:25.698Z,992.49
2018-02-01T05:29:51.184Z,992.5
2018-02-01T05:30:16.640Z,992.52
2018-02-01T05:30:42.084Z,992.47
2018-02-01T05:31:07.558Z,992.49
2018-02-01T05:31:33.026Z,992.49
2018-02-01T05:31:58.508Z,992.45
2018-02-01T05:32:23.968Z,992.48
2018-02-01T05:32:49.436Z,992.53
2018-02-01T05:33:14.921Z,992.49
2018-02-01T05:33:40.367Z,992.51
2018-02-01T05:34:05.833Z,992.54
2018-02-01T05:34:31.293Z,992.47
2018-02-01T05:34:56.738Z,992.52
2018-02-01T05:35:22.230Z,992.48
2018-02-01T05:35:47.701Z,992.51
2018-02-01T05:36:13.192Z,992.51
2018-02-01T05:36:38.623Z,992.5
2018-02-01T05:37:04.152Z,992.48
2018-02-01T05:37:29.590Z,992.44
2018-02-01T05:37:55.087Z,992.47
2018-02-01T05:38:20.557Z,992.49
2018-02-01T05:38:46.006Z,992.51
2018-02-01T05:39:11.496Z,992.45
2018-02-01T05:39:36.975Z,992.53
2018-02-01T05:40:02.445Z,992.52
2018-02-01T05:40:27.895Z,992.5
2018-02-01T05:40:53.542Z,992.51
2018-02-01T05:41:19.022Z,992.49
2018-02-01T05:41:44.469Z,992.5
2018-02-01T05:42:09.953Z,992.51
2018-02-01T05:42:35.413Z,992.5
2018-02-01T05:43:00.867Z,992.53
2018-02-01T05:43:26.368Z,992.52
2018-02-01T05:43:51.795Z,992.52
2018-02-01T05:44:17.271Z,992.51
2018-02-01T05:44:42.764Z,992.51
2018-02-01T05:45:08.259Z,992.55
2018-02-01T05:45:33.746Z,992.55
2018-02-01T05:45:59.235Z,992.53
2018-02-01T05:46:24.653Z,992.55
2018-02-01T05:46:50.139Z,992.55
2018-02-01T05:47:15.594Z,992.55
2018-02-01T05:47:41.048Z,992.62
2018-02-01T05:48:06.509Z,992.59
2018-02-01T05:48:32.006Z,992.54
2018-02-01T05:48:57.588Z,992.55
2018-02-01T05:49:23.049Z,992.58
2018-02-01T05:49:48.539Z,992.55
2018-02-01T05:50:13.983Z,992.57
2018-02-01T05:50:39.479Z,992.56
2018-02-01T05:51:04.969Z,992.57
2018-02-01T05:51:30.425Z,992.52
2018-02-01T05:51:55.901Z,992.58
2018-02-01T05:52:21.376Z,992.54
2018-02-01T05:52:46.868Z,992.54
2018-02-01T05:53:12.323Z,992.58
2018-02-01T05:53:37.842Z,992.6
2018-02-01T05:54:03.325Z,992.51
2018-02-01T05:54:28.763Z,992.57
2018-02-01T05:54:54.251Z,992.57
2018-02-01T05:55:19.727Z,992.59
2018-02-01T05:55:45.297Z,992.56
2018-02-01T05:56:10.665Z,992.55
2018-02-01T05:56:36.177Z,992.55
2018-02-01T05:57:01.701Z,992.54
2018-02-01T05:57:27.138Z,992.56
2018-02-01T05:57:52.754Z,992.62
2018-02-01T05:58:18.186Z,992.56
2018-02-01T05:58:43.635Z,992.64
2018-02-01T05:59:09.083Z,992.57
2018-02-01T05:59:34.536Z,992.57
2018-02-01T05:59:59.990Z,992.56
2018-02-01T06:00:25.509Z,992.53
2018-02-01T06:00:50.957Z,992.51
2018-02-01T06:01:16.405Z,992.57
2018-02-01T06:01:41.868Z,992.55
2018-02-01T06:02:07.405Z,992.51
2018-02-01T06:02:32.855Z,992.51
2018-02-01T06:02:58.331Z,992.53
2018-02-01T06:03:23.801Z,992.54
2018-02-01T06:03:49.240Z,992.56
2018-02-01T06:04:14.704Z,992.55
2018-02-01T06:04:40.179Z,992.49
2018-02-01T06:05:05.630Z,992.57
2018-02-01T06:05:31.094Z,992.51
2018-02-01T06:05:56.543Z,992.5
2018-02-01T06:06:22.080Z,992.46
2018-02-01T06:06:47.520Z,992.49
2018-02-01T06:07:12.987Z,992.47
2018-02-01T06:07:38.471Z,992.5
2018-02-01T06:08:03.928Z,992.44
2018-02-01T06:08:29.413Z,992.51
2018-02-01T06:08:54.867Z,992.47
2018-02-01T06:09:20.335Z,992.49
2018-02-01T06:09:45.808Z,992.47
2018-02-01T06:10:11.263Z,992.51
2018-02-01T06:10:36.741Z,992.51
2018-02-01T06:11:02.227Z,992.49
2018-02-01T06:11:27.697Z,992.45
2018-02-01T06:11:53.179Z,992.46
2018-02-01T06:12:18.640Z,992.52
2018-02-01T06:12:44.071Z,992.48
2018-02-01T06:13:09.581Z,992.49
2018-02-01T06:13:35.023Z,992.45
2018-02-01T06:14:00.468Z,992.43
2018-02-01T06:14:25.949Z,992.45
2018-02-01T06:14:51.411Z,992.52
2018-02-01T06:15:16.909Z,992.47
2018-02-01T06:15:42.417Z,992.53
2018-02-01T06:16:07.856Z,992.54
2018-02-01T06:16:33.338Z,992.54
2018-02-01T06:16:58.770Z,992.56
2018-02-01T06:17:24.232Z,992.58
2018-02-01T06:17:49.715Z,992.55
2018-02-01T06:18:15.144Z,992.57
2018-02-01T06:18:40.640Z,992.62
2018-02-01T06:19:06.107Z,992.65
2018-02-01T06:19:31.577Z,992.6
2018-02-01T06:19:57.040Z,992.62
2018-02-01T06:20:22.504Z,992.62
2018-02-01T06:20:48.009Z,992.62
2018-02-01T06:21:13.475Z,992.62
2018-02-01T06:21:38.933Z,992.61
2018-02-01T06:22:04.417Z,992.58
2018-02-01T06:23:23.314Z,992.64
2018-02-01T06:23:48.815Z,992.66
2018-02-01T06:24:14.267Z,992.61
2018-02-01T06:24:39.775Z,992.64
2018-02-01T06:25:05.229Z,992.63
2018-02-01T06:25:30.687Z,992.64
2018-02-01T06:25:56.148Z,992.63
2018-02-01T06:26:21.616Z,992.63
2018-02-01T06:26:47.117Z,992.65
2018-02-01T06:27:12.578Z,992.66
2018-02-01T06:27:38.027Z,992.63
2018-02-01T06:28:03.534Z,992.63
2018-02-01T06:28:29.004Z,992.65
2018-02-01T06:28:54.465Z,992.63
2018-02-01T06:29:19.920Z,992.6
2018-02-01T06:29:45.364Z,992.6
2018-02-01T06:30:10.817Z,992.62
2018-02-01T06:30:36.330Z,992.59
2018-02-01T06:31:01.770Z,992.61
2018-02-01T06:31:27.334Z,992.63
2018-02-01T06:31:52.864Z,992.61
2018-02-01T06:32:18.304Z,992.62
2018-02-01T06:32:43.790Z,992.63
2018-02-01T06:33:09.251Z,992.65
2018-02-01T06:33:34.751Z,992.63
2018-02-01T06:34:00.175Z,992.61
2018-02-01T06:34:25.643Z,992.62
2018-02-01T06:35:39.460Z,992.63
2018-02-01T06:36:05.036Z,992.62
2018-02-01T06:36:30.530Z,992.63
2018-02-01T06:36:56.034Z,992.62
2018-02-01T06:37:21.470Z,992.63
2018-02-01T06:37:46.893Z,992.61
2018-02-01T06:38:12.430Z,992.62
2018-02-01T06:38:38.057Z,992.6
2018-02-01T06:39:03.510Z,992.63
2018-02-01T06:39:29.022Z,992.62
2018-02-01T06:39:54.548Z,992.65
2018-02-01T06:40:20.015Z,992.64
2018-02-01T06:40:45.473Z,992.63
2018-02-01T06:41:11.018Z,992.63
2018-02-01T06:41:36.422Z,992.56
2018-02-01T06:42:01.918Z,992.59
2018-02-01T06:42:27.369Z,992.62
2018-02-01T06:42:52.842Z,992.6
2018-02-01T06:43:18.309Z,992.58
2018-02-01T06:43:43.778Z,992.62
2018-02-01T06:44:09.249Z,992.59
2018-02-01T06:44:34.739Z,992.6
2018-02-01T06:45:00.169Z,992.59
2018-02-01T06:45:25.660Z,992.66
2018-02-01T06:45:51.120Z,992.65
2018-02-01T06:46:16.557Z,992.59
2018-02-01T06:46:42.013Z,992.63
2018-02-01T06:47:07.474Z,992.65
2018-02-01T06:47:32.938Z,992.61
2018-02-01T06:47:58.382Z,992.61
2018-02-01T06:48:23.886Z,992.58
2018-02-01T06:48:49.319Z,992.58
2018-02-01T06:49:14.844Z,992.58
2018-02-01T06:49:40.317Z,992.54
2018-02-01T06:50:05.796Z,992.56
2018-02-01T06:50:31.279Z,992.56
2018-02-01T06:50:56.761Z,992.6
2018-02-01T06:52:15.650Z,992.5
2018-02-01T06:52:41.134Z,992.54
2018-02-01T06:53:06.633Z,992.54
2018-02-01T06:53:32.077Z,992.52
2018-02-01T06:53:57.567Z,992.55
2018-02-01T06:54:23.119Z,992.57
2018-02-01T06:54:48.607Z,992.54
2018-02-01T06:55:14.061Z,992.57
2018-02-01T06:55:39.586Z,992.54
2018-02-01T06:56:05.017Z,992.54
2018-02-01T06:56:30.531Z,992.51
2018-02-01T06:56:55.980Z,992.55
2018-02-01T06:57:21.447Z,992.54
2018-02-01T06:57:46.884Z,992.6
2018-02-01T06:58:12.349Z,992.57
2018-02-01T06:58:37.813Z,992.56
2018-02-01T06:59:03.268Z,992.53
2018-02-01T06:59:28.737Z,992.52
2018-02-01T06:59:54.208Z,992.59
2018-02-01T07:00:19.711Z,992.53
2018-02-01T07:00:45.148Z,992.56
2018-02-01T07:01:10.584Z,992.57
2018-02-01T07:01:36.066Z,992.52
2018-02-01T07:02:01.527Z,992.52
2018-02-01T07:02:26.987Z,992.53
2018-02-01T07:02:52.505Z,992.52
2018-02-01T07:03:17.950Z,992.54
2018-02-01T07:03:43.397Z,992.53
2018-02-01T07:04:08.883Z,992.52
2018-02-01T07:04:34.356Z,992.59
2018-02-01T07:04:59.812Z,992.55
2018-02-01T07:05:25.242Z,992.58
2018-02-01T07:05:50.689Z,992.63
2018-02-01T07:06:16.180Z,992.59
2018-02-01T07:06:41.658Z,992.59
2018-02-01T07:07:07.108Z,992.61
2018-02-01T07:07:32.598Z,992.59
2018-02-01T07:07:58.076Z,992.6
2018-02-01T07:08:23.527Z,992.55
2018-02-01T07:08:48.981Z,992.55
2018-02-01T07:09:14.441Z,992.57
2018-02-01T07:09:39.917Z,992.57
2018-02-01T07:10:05.454Z,992.56
2018-02-01T07:10:30.896Z,992.55
2018-02-01T07:10:56.391Z,992.57
2018-02-01T07:11:21.866Z,992.54
2018-02-01T07:11:47.332Z,992.58
2018-02-01T07:12:12.906Z,992.53
2018-02-01T07:12:38.369Z,992.55
2018-02-01T07:13:03.841Z,992.55
2018-02-01T07:13:29.302Z,992.54
2018-02-01T07:13:54.765Z,992.58
2018-02-01T07:14:20.244Z,992.53
2018-02-01T07:14:45.720Z,992.57
2018-02-01T07:15:11.163Z,992.55
2018-02-01T07:15:36.643Z,992.62
2018-02-01T07:16:02.101Z,992.61
2018-02-01T07:16:27.557Z,992.66
2018-02-01T07:16:53.024Z,992.61
2018-02-01T07:17:18.489Z,992.66
2018-02-01T07:17:43.960Z,992.64
2018-02-01T07:18:09.415Z,992.65
2018-02-01T07:18:34.882Z,992.64
2018-02-01T07:19:00.357Z,992.66
2018-02-01T07:19:25.811Z,992.67
2018-02-01T07:19:51.279Z,992.65
2018-02-01T07:20:16.747Z,992.6
2018-02-01T07:20:42.211Z,992.74
2018-02-01T07:21:07.682Z,992.65
2018-02-01T07:21:33.166Z,992.64
2018-02-01T07:21:58.639Z,992.64
2018-02-01T07:22:24.092Z,992.74
2018-02-01T07:22:49.593Z,992.72
2018-02-01T07:23:15.028Z,992.74
2018-02-01T07:23:40.483Z,992.71
2018-02-01T07:24:05.966Z,992.69
2018-02-01T07:24:31.440Z,992.73
2018-02-01T07:24:56.892Z,992.72
2018-02-01T07:25:22.386Z,992.73
2018-02-01T07:25:47.852Z,992.73
2018-02-01T07:26:13.305Z,992.77
2018-02-01T07:26:38.783Z,992.79
2018-02-01T07:27:04.240Z,992.83
2018-02-01T07:27:29.695Z,992.81
2018-02-01T07:27:55.157Z,992.82
2018-02-01T07:28:20.623Z,992.8
2018-02-01T07:28:46.115Z,992.78
2018-02-01T07:29:11.585Z,992.84
2018-02-01T07:29:37.024Z,992.81
2018-02-01T07:30:02.472Z,992.8
2018-02-01T07:30:27.994Z,992.86
2018-02-01T07:30:53.426Z,992.92
2018-02-01T07:31:18.876Z,992.86
2018-02-01T07:31:44.364Z,992.85
2018-02-01T07:32:09.859Z,992.83
2018-02-01T07:32:35.327Z,992.87
2018-02-01T07:33:00.824Z,992.76
2018-02-01T07:33:26.252Z,992.8
2018-02-01T07:33:51.721Z,992.82
2018-02-01T07:34:17.178Z,992.83
2018-02-01T07:34:42.761Z,992.76
2018-02-01T07:35:08.274Z,992.78
2018-02-01T07:35:33.699Z,992.8
2018-02-01T07:35:59.191Z,992.79
2018-02-01T07:36:24.619Z,992.8
2018-02-01T07:36:50.118Z,992.82
2018-02-01T07:37:15.572Z,992.8
2018-02-01T07:37:41.023Z,992.82
2018-02-01T07:38:06.493Z,992.84
2018-02-01T07:38:31.981Z,992.85
2018-02-01T07:38:57.484Z,992.85
2018-02-01T07:39:22.970Z,992.84
2018-02-01T07:39:48.417Z,992.9
2018-02-01T07:40:13.909Z,992.86
2018-02-01T07:40:39.364Z,992.87
2018-02-01T07:41:04.824Z,992.87
2018-02-01T07:41:30.268Z,992.82
2018-02-01T07:41:55.705Z,992.87
2018-02-01T07:42:21.170Z,992.86
2018-02-01T07:42:46.636Z,992.86
2018-02-01T07:43:12.140Z,992.88
2018-02-01T07:43:37.617Z,992.88
2018-02-01T07:44:03.081Z,992.85
2018-02-01T07:44:28.568Z,992.85
2018-02-01T07:44:54.021Z,992.78
2018-02-01T07:45:19.487Z,992.82
2018-02-01T07:45:44.977Z,992.88
2018-02-01T07:46:10.451Z,992.81
2018-02-01T07:46:35.924Z,992.82
2018-02-01T07:47:01.401Z,992.83
2018-02-01T07:47:26.861Z,992.81
2018-02-01T07:47:52.343Z,992.84
2018-02-01T07:48:17.807Z,992.79
2018-02-01T07:48:43.299Z,992.82
2018-02-01T07:49:08.776Z,992.86
2018-02-01T07:49:34.258Z,992.78
2018-02-01T07:49:59.725Z,992.84
2018-02-01T07:50:25.168Z,992.85
2018-02-01T07:50:50.636Z,992.84
2018-02-01T07:51:16.131Z,992.84
2018-02-01T07:51:41.576Z,992.84
2018-02-01T07:52:07.033Z,992.81
2018-02-01T07:52:32.523Z,992.82
2018-02-01T07:52:58.006Z,992.82
2018-02-01T07:53:23.465Z,992.82
2018-02-01T07:53:48.902Z,992.8
2018-02-01T07:54:14.355Z,992.82
2018-02-01T07:54:39.841Z,992.79
2018-02-01T07:55:05.319Z,992.84
2018-02-01T07:55:30.761Z,992.78
2018-02-01T07:55:56.228Z,992.83
2018-02-01T07:56:21.841Z,992.8
2018-02-01T07:56:47.309Z,992.74
2018-02-01T07:57:12.776Z,992.81
2018-02-01T07:57:38.229Z,992.74
2018-02-01T07:58:03.698Z,992.77
2018-02-01T07:58:29.147Z,992.76
2018-02-01T07:58:54.602Z,992.8
2018-02-01T07:59:20.086Z,992.78
2018-02-01T07:59:45.590Z,992.81
2018-02-01T08:00:11.047Z,992.78
2018-02-01T08:00:36.516Z,992.78
2018-02-01T08:01:02.050Z,992.74
2018-02-01T08:01:27.521Z,992.77
2018-02-01T08:01:53.015Z,992.79
2018-02-01T08:02:18.507Z,992.81
2018-02-01T08:02:43.937Z,992.79
2018-02-01T08:03:09.410Z,992.76
2018-02-01T08:03:34.887Z,992.82
2018-02-01T08:04:00.406Z,992.79
2018-02-01T08:04:25.850Z,992.81
2018-02-01T08:04:51.336Z,992.76
2018-02-01T08:05:16.777Z,992.79
2018-02-01T08:05:42.253Z,992.79
2018-02-01T08:06:07.718Z,992.75
2018-02-01T08:06:33.192Z,992.73
2018-02-01T08:06:58.665Z,992.71
2018-02-01T08:07:24.133Z,992.73
2018-02-01T08:07:49.575Z,992.78
2018-02-01T08:08:15.025Z,992.76
2018-02-01T08:08:40.510Z,992.76
2018-02-01T08:09:05.981Z,992.75
2018-02-01T08:09:31.493Z,992.72
2018-02-01T08:09:57.075Z,992.74
2018-02-01T08:10:22.430Z,992.74
2018-02-01T08:10:47.922Z,992.75
2018-02-01T08:11:13.376Z,992.72
2018-02-01T08:11:38.860Z,992.68
2018-02-01T08:12:04.327Z,992.75
2018-02-01T08:12:29.806Z,992.75
2018-02-01T08:12:55.422Z,992.77
2018-02-01T08:13:20.818Z,992.79
2018-02-01T08:13:46.324Z,992.76
2018-02-01T08:14:11.853Z,992.77
2018-02-01T08:14:37.328Z,992.8
2018-02-01T08:15:02.863Z,992.79
2018-02-01T08:15:28.334Z,992.77
2018-02-01T08:15:53.971Z,992.8
2018-02-01T08:16:19.505Z,992.79
2018-02-01T08:16:44.943Z,992.81
2018-02-01T08:17:10.392Z,992.79
2018-02-01T08:17:36.685Z,992.83
2018-02-01T08:18:01.369Z,992.86
2018-02-01T08:18:26.826Z,992.84
2018-02-01T08:18:52.473Z,992.88
2018-02-01T08:19:56.161Z,992.81
2018-02-01T08:20:21.565Z,992.84
2018-02-01T08:20:47.194Z,992.81
2018-02-01T08:21:12.817Z,992.82
2018-02-01T08:21:38.302Z,992.84
2018-02-01T08:22:03.740Z,992.84
2018-02-01T08:22:29.191Z,992.8
2018-02-01T08:22:54.679Z,992.86
2018-02-01T08:23:20.159Z,992.89
2018-02-01T08:23:45.647Z,992.87
2018-02-01T08:24:11.119Z,992.89
2018-02-01T08:24:36.606Z,992.88
2018-02-01T08:25:02.028Z,992.87
2018-02-01T08:25:27.485Z,992.87
2018-02-01T08:25:52.970Z,992.86
2018-02-01T08:26:18.449Z,992.86
2018-02-01T08:26:43.930Z,992.88
2018-02-01T08:27:09.398Z,992.82
2018-02-01T08:27:34.883Z,992.82
2018-02-01T08:28:00.453Z,992.87
2018-02-01T08:28:25.854Z,992.88
2018-02-01T08:28:51.365Z,992.85
2018-02-01T08:29:16.767Z,992.82
2018-02-01T08:29:42.244Z,992.78
2018-02-01T08:30:07.723Z,992.86
2018-02-01T08:30:33.168Z,992.79
2018-02-01T08:30:58.617Z,992.87
2018-02-01T08:31:24.109Z,992.83
2018-02-01T08:31:49.598Z,992.83
2018-02-01T08:32:15.042Z,992.82
2018-02-01T08:32:40.521Z,992.86
2018-02-01T08:33:05.999Z,992.77
2018-02-01T08:33:31.451Z,992.85
2018-02-01T08:33:56.915Z,992.85
2018-02-01T08:34:22.382Z,992.81
2018-02-01T08:34:47.847Z,992.79
2018-02-01T08:35:13.317Z,992.85
2018-02-01T08:35:38.784Z,992.82
2018-02-01T08:36:04.224Z,992.88
2018-02-01T08:36:29.694Z,992.85
2018-02-01T08:36:55.150Z,992.86
2018-02-01T08:37:20.603Z,992.87
2018-02-01T08:37:46.065Z,992.82
2018-02-01T08:38:11.525Z,992.81
2018-02-01T08:38:37.026Z,992.85
2018-02-01T08:39:02.455Z,992.82
2018-02-01T08:39:27.926Z,992.82
2018-02-01T08:39:53.381Z,992.82
2018-02-01T08:40:18.864Z,992.81
2018-02-01T08:40:44.309Z,992.85
2018-02-01T08:41:09.800Z,992.85
2018-02-01T08:41:35.378Z,992.84
2018-02-01T08:42:00.750Z,992.77
2018-02-01T08:42:26.235Z,992.82
2018-02-01T08:42:51.700Z,992.83
2018-02-01T08:43:17.149Z,992.79
2018-02-01T08:43:42.635Z,992.87
2018-02-01T08:44:08.078Z,992.78
2018-02-01T08:44:33.594Z,992.9
2018-02-01T08:44:59.026Z,992.86
2018-02-01T08:45:24.466Z,992.87
2018-02-01T08:45:49.924Z,992.84
2018-02-01T08:46:15.410Z,992.9
2018-02-01T08:46:40.856Z,992.88
2018-02-01T08:47:06.324Z,992.86
2018-02-01T08:47:31.783Z,992.86
2018-02-01T08:47:57.232Z,992.89
2018-02-01T08:48:22.707Z,992.88
2018-02-01T08:48:48.153Z,992.94
2018-02-01T08:49:13.618Z,992.96
2018-02-01T08:49:39.107Z,992.9
2018-02-01T08:50:04.556Z,992.9
2018-02-01T08:50:29.999Z,992.91
2018-02-01T08:50:55.593Z,992.93
2018-02-01T08:51:21.059Z,992.92
2018-02-01T08:51:46.519Z,992.89
2018-02-01T08:52:12.039Z,992.96
2018-02-01T08:52:37.503Z,992.92
2018-02-01T08:53:02.994Z,992.96
2018-02-01T08:53:28.462Z,992.95
2018-02-01T08:53:53.962Z,992.95
2018-02-01T08:54:19.428Z,992.97
2018-02-01T08:54:44.843Z,993.02
2018-02-01T08:55:10.349Z,992.97
2018-02-01T08:55:35.805Z,993.03
2018-02-01T08:56:01.280Z,993.03
2018-02-01T08:56:26.798Z,992.96
2018-02-01T08:56:52.237Z,993.04
2018-02-01T08:57:17.692Z,993.02
2018-02-01T08:57:43.195Z,993.03
2018-02-01T08:58:08.635Z,993
2018-02-01T08:58:34.098Z,993.07
2018-02-01T08:58:59.562Z,993.07
2018-02-01T08:59:25.023Z,993.07
2018-02-01T08:59:50.494Z,993.02
2018-02-01T09:00:15.945Z,993.05
2018-02-01T09:00:41.394Z,993.04
2018-02-01T09:01:06.862Z,993.13
2018-02-01T09:01:32.359Z,993.03
2018-02-01T09:01:57.794Z,993.05
2018-02-01T09:02:23.252Z,993.06
2018-02-01T09:02:48.772Z,993.11
2018-02-01T09:03:14.206Z,992.98
2018-02-01T09:03:39.694Z,993.07
2018-02-01T09:04:05.258Z,993.04
2018-02-01T09:04:30.747Z,993.08
2018-02-01T09:04:56.192Z,993.11
2018-02-01T09:05:21.637Z,993.08
2018-02-01T09:05:47.096Z,993.09
2018-02-01T09:06:12.559Z,993.05
2018-02-01T09:06:38.069Z,993.06
2018-02-01T09:07:03.545Z,993.08
2018-02-01T09:07:29.096Z,993.08
2018-02-01T09:07:54.546Z,993.08
2018-02-01T09:08:20.059Z,993.09
2018-02-01T09:08:45.504Z,993.09
2018-02-01T09:09:10.928Z,993.11
2018-02-01T09:09:36.453Z,993.05
2018-02-01T09:10:01.867Z,993.12
2018-02-01T09:10:27.364Z,993.09
2018-02-01T09:10:52.838Z,993.06
2018-02-01T09:11:18.416Z,993.03
2018-02-01T09:11:43.769Z,993.06
2018-02-01T09:12:09.240Z,993.04
2018-02-01T09:12:34.716Z,993.07
2018-02-01T09:13:00.184Z,993.01
2018-02-01T09:13:25.656Z,993
2018-02-01T09:13:51.149Z,993.02
2018-02-01T09:14:16.579Z,992.99
2018-02-01T09:14:42.032Z,992.96
2018-02-01T09:15:07.531Z,992.98
2018-02-01T09:15:33.021Z,993.03
2018-02-01T09:15:58.448Z,992.98
2018-02-01T09:16:23.920Z,993.06
2018-02-01T09:16:49.376Z,993
2018-02-01T09:17:14.865Z,992.98
2018-02-01T09:17:40.363Z,992.96
2018-02-01T09:18:05.788Z,993.03
2018-02-01T09:18:31.293Z,993
2018-02-01T09:18:56.771Z,992.98
2018-02-01T09:19:22.230Z,993.05
2018-02-01T09:19:47.748Z,993.01
2018-02-01T09:20:13.196Z,993.05
2018-02-01T09:20:38.683Z,993.05
2018-02-01T09:21:04.164Z,993.04
2018-02-01T09:21:29.583Z,993
2018-02-01T09:21:55.060Z,993.01
2018-02-01T09:22:20.518Z,992.98
2018-02-01T09:22:45.948Z,993.01
2018-02-01T09:23:11.398Z,992.98
2018-02-01T09:23:36.886Z,992.96
2018-02-01T09:24:02.463Z,993.02
2018-02-01T09:24:27.815Z,992.99
2018-02-01T09:25:46.706Z,992.99
2018-02-01T09:26:12.197Z,992.94
2018-02-01T09:26:37.669Z,992.93
2018-02-01T09:27:03.228Z,992.96
2018-02-01T09:27:28.667Z,992.89
2018-02-01T09:27:54.127Z,992.88
2018-02-01T09:28:19.617Z,992.88
2018-02-01T09:28:45.067Z,992.87
2018-02-01T09:29:10.551Z,992.86
2018-02-01T09:29:36.014Z,992.86
2018-02-01T09:30:01.471Z,992.82
2018-02-01T09:30:26.927Z,992.82
2018-02-01T09:30:52.411Z,992.87
2018-02-01T09:31:17.879Z,992.9
2018-02-01T09:31:43.365Z,992.94
2018-02-01T09:32:08.792Z,992.92
2018-02-01T09:32:34.258Z,992.93
2018-02-01T09:32:59.742Z,992.89
2018-02-01T09:33:25.217Z,992.91
2018-02-01T09:33:50.655Z,992.94
2018-02-01T09:34:16.168Z,992.93
2018-02-01T09:34:41.580Z,992.97
2018-02-01T09:35:07.057Z,992.93
2018-02-01T09:35:32.530Z,992.95
2018-02-01T09:35:58.038Z,992.96
2018-02-01T09:36:23.472Z,992.94
2018-02-01T09:36:48.983Z,992.96
2018-02-01T09:37:14.431Z,992.97
2018-02-01T09:37:39.923Z,993
2018-02-01T09:38:05.384Z,992.97
2018-02-01T09:38:30.939Z,992.92
2018-02-01T09:38:56.338Z,992.96
2018-02-01T09:39:21.792Z,992.97
2018-02-01T09:39:47.289Z,992.94
2018-02-01T09:40:12.763Z,992.98
2018-02-01T09:40:38.232Z,992.91
2018-02-01T09:41:03.722Z,993.01
2018-02-01T09:41:29.183Z,993.02
2018-02-01T09:41:54.628Z,993.04
2018-02-01T09:42:20.090Z,992.99
2018-02-01T09:42:45.560Z,992.98
2018-02-01T09:43:11.038Z,992.95
2018-02-01T09:43:36.470Z,992.95
2018-02-01T09:44:01.931Z,992.96
2018-02-01T09:44:27.457Z,992.86
2018-02-01T09:44:52.902Z,992.91
2018-02-01T09:45:18.360Z,992.88
2018-02-01T09:45:43.818Z,992.92
2018-02-01T09:46:09.290Z,992.98
2018-02-01T09:46:34.762Z,992.93
2018-02-01T09:47:00.219Z,992.92
2018-02-01T09:47:25.753Z,992.94
2018-02-01T09:47:51.183Z,992.94
2018-02-01T09:48:16.694Z,992.95
2018-02-01T09:48:42.188Z,992.9
2018-02-01T09:49:07.639Z,992.9
2018-02-01T09:49:33.081Z,992.97
2018-02-01T09:49:58.562Z,992.99
2018-02-01T09:50:24.036Z,992.97
2018-02-01T09:50:49.524Z,992.99
2018-02-01T09:51:14.981Z,992.99
2018-02-01T09:51:40.450Z,992.98
2018-02-01T09:52:05.921Z,993.01
2018-02-01T09:52:31.390Z,993.01
2018-02-01T09:52:56.845Z,993.01
2018-02-01T09:53:22.323Z,992.99
2018-02-01T09:53:47.764Z,993.05
2018-02-01T09:54:13.247Z,993.04
2018-02-01T09:54:38.699Z,993.01
2018-02-01T09:55:04.159Z,993.01
2018-02-01T09:55:29.642Z,993.03
2018-02-01T09:55:55.162Z,993.06
2018-02-01T09:56:20.600Z,993.04
2018-02-01T09:56:46.053Z,993.07
2018-02-01T09:57:49.728Z,993.13
2018-02-01T09:58:15.213Z,993.15
2018-02-01T09:58:40.693Z,993.1
2018-02-01T09:59:06.151Z,993.15
2018-02-01T09:59:31.611Z,993.12
2018-02-01T09:59:57.076Z,993.07
2018-02-01T10:00:22.540Z,993.06
2018-02-01T10:00:48.030Z,993.04
2018-02-01T10:01:13.503Z,993.1
2018-02-01T10:01:38.973Z,993.07
2018-02-01T10:02:04.437Z,993.09
2018-02-01T10:02:29.910Z,993.08
2018-02-01T10:02:55.345Z,993.08
2018-02-01T10:03:20.839Z,993.03
2018-02-01T10:03:46.302Z,993.07
2018-02-01T10:04:11.810Z,993.1
2018-02-01T10:04:37.275Z,993.05
2018-02-01T10:05:02.763Z,993.1
2018-02-01T10:05:28.214Z,993.09
2018-02-01T10:05:53.685Z,993
2018-02-01T10:06:19.161Z,993.07
2018-02-01T10:06:44.623Z,993.06
2018-02-01T10:07:10.094Z,993.05
2018-02-01T10:07:35.551Z,993.09
2018-02-01T10:08:01.045Z,993.13
2018-02-01T10:08:26.546Z,992.98
2018-02-01T10:08:51.990Z,993.09
2018-02-01T10:09:17.473Z,993.12
2018-02-01T10:09:42.935Z,993.08
2018-02-01T10:10:08.390Z,993.06
2018-02-01T10:10:33.883Z,993.06
2018-02-01T10:10:59.464Z,993.14
2018-02-01T10:11:24.889Z,993.07
2018-02-01T10:11:50.429Z,993.09
2018-02-01T10:12:15.886Z,993.08
2018-02-01T10:12:41.377Z,993.09
2018-02-01T10:13:06.829Z,993.08
2018-02-01T10:13:32.294Z,993.1
2018-02-01T10:13:57.752Z,993.11
2018-02-01T10:14:23.216Z,993.1
2018-02-01T10:14:48.704Z,993.09
2018-02-01T10:15:14.257Z,993.09
2018-02-01T10:15:39.756Z,993.11
2018-02-01T10:16:05.243Z,993.09
2018-02-01T10:16:30.700Z,993.07
2018-02-01T10:16:56.150Z,993.04
2018-02-01T10:17:21.658Z,993.03
2018-02-01T10:17:47.068Z,993.04
2018-02-01T10:18:12.551Z,993.13
2018-02-01T10:18:38.032Z,993.06
2018-02-01T10:19:03.502Z,993.02
2018-02-01T10:19:28.988Z,993.06
2018-02-01T10:19:54.464Z,993.05
2018-02-01T10:20:19.922Z,993.06
2018-02-01T10:20:45.418Z,993.11
2018-02-01T10:21:10.919Z,993.08
2018-02-01T10:21:36.384Z,993
2018-02-01T10:22:01.847Z,993.01
2018-02-01T10:22:27.346Z,993.03
2018-02-01T10:22:52.846Z,993.06
2018-02-01T10:23:18.313Z,993.09
2018-02-01T10:23:43.826Z,993.02
2018-02-01T10:24:09.252Z,993.05
2018-02-01T10:24:34.724Z,993.07